Time;durP1;ratioP1;P1;durP2;ratioP2;P2;SDS_P1;SDS_P2;PMS_P1;PMS_P2;Temp;Humidity;BMP_temperature;BMP_pressure;BME280_temperature;BME280_humidity;BME280_pressure;Samples;Min_cycle;Max_cycle;Signal;HPM_P1;HPM_P2
2024/01/03 00:01:18;;;;;;;7.43;2.63;;;9.50;99.90;;;;;;6301466;22;20015;-74
2024/01/03 00:03:43;;;;;;;9.40;1.63;;;9.50;99.90;;;;;;6301103;22;20022;-74
2024/01/03 00:06:14;;;;;;;7.40;1.67;;;9.50;99.90;;;;;;6301280;22;20092;-74
2024/01/03 00:08:41;;;;;;;7.32;1.67;;;9.50;99.90;;;;;;6275412;22;20027;-75
2024/01/03 00:11:13;;;;;;;3.88;1.20;;;9.50;99.90;;;;;;6300410;22;20018;-74
2024/01/03 00:14:03;;;;;;;5.10;1.42;;;9.50;99.90;;;;;;6300721;22;20015;-74
2024/01/03 00:16:35;;;;;;;4.05;1.30;;;9.40;99.90;;;;;;6274002;22;20076;-75
2024/01/03 00:19:03;;;;;;;3.85;1.40;;;9.40;99.90;;;;;;6300530;22;20043;-74
2024/01/03 00:21:30;;;;;;;5.25;1.65;;;9.40;99.90;;;;;;6300224;22;20015;-75
2024/01/03 00:24:19;;;;;;;5.53;1.45;;;9.30;99.90;;;;;;6300234;22;20017;-73
2024/01/03 00:26:45;;;;;;;5.15;1.50;;;9.30;99.90;;;;;;6300543;22;20026;-76
2024/01/03 00:29:47;;;;;;;7.30;1.77;;;9.30;99.90;;;;;;6274655;22;20011;-75
2024/01/03 00:32:13;;;;;;;4.40;1.60;;;9.30;99.90;;;;;;6300433;22;20037;-75
2024/01/03 00:34:40;;;;;;;3.58;1.50;;;9.30;99.90;;;;;;6300678;22;20179;-75
2024/01/03 00:37:23;;;;;;;4.85;1.50;;;9.20;99.90;;;;;;6274289;22;20018;-75
2024/01/03 00:39:49;;;;;;;5.10;1.58;;;9.20;99.90;;;;;;6300919;22;20031;-76
2024/01/03 00:42:15;;;;;;;4.07;1.40;;;9.20;99.90;;;;;;6300737;22;20019;-75
2024/01/03 00:44:41;;;;;;;5.18;1.63;;;9.10;99.90;;;;;;6300401;22;20346;-75
2024/01/03 00:47:07;;;;;;;6.93;1.65;;;9.20;99.90;;;;;;6300240;22;20102;-75
2024/01/03 00:49:33;;;;;;;8.32;1.55;;;9.20;99.90;;;;;;6299988;22;20019;-76
2024/01/03 00:52:01;;;;;;;5.82;1.40;;;9.20;99.90;;;;;;6299826;22;20011;-76
2024/01/03 00:54:29;;;;;;;5.88;1.70;;;9.20;99.90;;;;;;6300231;22;20023;-76
2024/01/03 00:56:55;;;;;;;8.48;1.60;;;9.20;99.90;;;;;;6299913;22;20019;-75
2024/01/03 00:59:21;;;;;;;7.93;1.70;;;9.20;99.90;;;;;;6302405;22;20007;-76
2024/01/03 01:01:47;;;;;;;6.70;1.92;;;9.10;99.90;;;;;;6300006;22;20034;-76
2024/01/03 01:04:15;;;;;;;8.45;1.55;;;9.10;99.90;;;;;;6299836;22;20082;-76
2024/01/03 01:06:43;;;;;;;10.05;1.77;;;9.10;99.90;;;;;;6300303;22;20413;-76
2024/01/03 01:09:09;;;;;;;8.02;1.80;;;9.10;99.90;;;;;;6275199;22;20358;-76
2024/01/03 01:11:35;;;;;;;6.72;1.92;;;9.00;99.90;;;;;;6274428;22;20023;-75
2024/01/03 01:14:01;;;;;;;9.80;1.92;;;9.10;99.90;;;;;;6300106;22;20016;-76
2024/01/03 01:16:26;;;;;;;8.88;1.98;;;9.00;99.90;;;;;;6274103;22;20086;-76
2024/01/03 01:18:52;;;;;;;6.32;1.88;;;8.90;99.90;;;;;;6300126;22;20149;-76
2024/01/03 01:21:18;;;;;;;10.85;2.33;;;8.90;99.90;;;;;;6273687;22;20019;-76
2024/01/03 01:23:43;;;;;;;9.25;1.63;;;8.90;99.90;;;;;;6299402;22;20462;-76
2024/01/03 01:26:09;;;;;;;7.03;1.95;;;8.90;99.90;;;;;;6274237;22;20026;-76
2024/01/03 01:28:35;;;;;;;6.35;2.72;;;8.90;99.90;;;;;;6299881;22;20111;-75
2024/01/03 01:31:01;;;;;;;11.93;1.88;;;8.90;99.90;;;;;;6299793;22;20011;-75
2024/01/03 01:33:26;;;;;;;9.68;2.22;;;8.90;99.90;;;;;;6299763;22;20335;-75
2024/01/03 01:35:52;;;;;;;7.65;2.03;;;8.90;99.90;;;;;;6299332;22;20011;-75
2024/01/03 01:38:18;;;;;;;7.38;2.10;;;8.90;99.90;;;;;;6299727;22;20015;-75
2024/01/03 01:40:48;;;;;;;7.20;1.80;;;9.00;99.90;;;;;;6300135;22;20011;-76
2024/01/03 01:43:14;;;;;;;7.55;1.70;;;9.00;99.90;;;;;;6300719;22;20156;-76
2024/01/03 01:45:40;;;;;;;9.00;2.85;;;9.00;99.90;;;;;;6274987;22;20015;-76
2024/01/03 01:48:07;;;;;;;12.80;2.17;;;9.00;99.90;;;;;;6300725;22;20018;-76
2024/01/03 01:50:34;;;;;;;7.68;1.85;;;9.00;99.90;;;;;;6300092;22;20021;-75
2024/01/03 01:53:00;;;;;;;11.60;2.00;;;9.00;99.90;;;;;;6300099;22;20324;-75
2024/01/03 01:55:26;;;;;;;4.85;2.15;;;9.00;99.90;;;;;;6299882;22;20037;-76
2024/01/03 01:57:52;;;;;;;4.55;1.77;;;9.00;99.90;;;;;;6273982;22;20064;-76
2024/01/03 02:00:19;;;;;;;5.13;1.80;;;9.00;99.90;;;;;;6273922;22;20037;-76
2024/01/03 02:02:46;;;;;;;9.15;2.20;;;9.10;99.90;;;;;;6299468;22;20073;-76
2024/01/03 02:05:13;;;;;;;6.15;1.40;;;9.10;99.90;;;;;;6299264;22;20270;-76
2024/01/03 02:07:39;;;;;;;2.55;1.48;;;9.10;99.90;;;;;;6299623;22;20015;-76
2024/01/03 02:10:06;;;;;;;4.22;1.33;;;9.10;99.90;;;;;;6299690;22;20024;-76
2024/01/03 02:12:31;;;;;;;6.30;1.90;;;9.10;99.90;;;;;;6299836;22;20073;-77
2024/01/03 02:14:57;;;;;;;8.80;2.17;;;9.10;99.90;;;;;;6299651;22;20016;-77
2024/01/03 02:17:23;;;;;;;7.28;2.08;;;9.10;99.90;;;;;;6299816;22;20026;-77
2024/01/03 02:19:50;;;;;;;6.35;1.50;;;9.10;99.90;;;;;;6299425;22;20065;-77
2024/01/03 02:22:15;;;;;;;2.95;1.70;;;9.10;99.90;;;;;;6273474;22;20403;-77
2024/01/03 02:24:41;;;;;;;5.15;2.03;;;9.20;99.90;;;;;;6299828;22;20022;-77
2024/01/03 02:27:07;;;;;;;8.98;2.15;;;9.10;99.90;;;;;;6299623;22;20015;-77
2024/01/03 02:29:33;;;;;;;6.32;1.45;;;9.10;99.90;;;;;;6299866;22;20693;-77
2024/01/03 02:31:58;;;;;;;6.82;1.65;;;9.10;99.90;;;;;;6299583;22;20094;-77
2024/01/03 02:34:25;;;;;;;4.53;1.92;;;9.10;99.90;;;;;;6299421;22;20411;-77
2024/01/03 02:36:51;;;;;;;2.00;1.13;;;9.10;99.90;;;;;;6300021;22;20465;-77
2024/01/03 02:39:17;;;;;;;3.60;1.45;;;9.10;99.90;;;;;;6299803;22;20018;-77
2024/01/03 02:41:43;;;;;;;2.33;1.23;;;9.10;99.90;;;;;;6273788;22;20019;-76
2024/01/03 02:44:10;;;;;;;7.85;1.35;;;9.10;99.90;;;;;;6299778;22;20030;-76
2024/01/03 02:46:36;;;;;;;3.28;1.40;;;9.10;99.90;;;;;;6299624;22;20015;-76
2024/01/03 02:49:01;;;;;;;4.43;1.42;;;9.10;99.90;;;;;;6299532;22;20061;-75
2024/01/03 02:51:27;;;;;;;5.30;1.63;;;9.10;99.90;;;;;;6299631;22;20352;-75
2024/01/03 02:53:53;;;;;;;5.80;1.58;;;9.10;99.90;;;;;;6299935;22;20107;-75
2024/01/03 02:56:18;;;;;;;5.53;1.85;;;9.10;99.90;;;;;;6300067;22;20564;-74
2024/01/03 02:58:44;;;;;;;6.80;1.80;;;9.10;99.90;;;;;;6274264;22;20011;-75
2024/01/03 03:01:10;;;;;;;5.10;1.52;;;9.20;99.90;;;;;;6273679;22;20016;-74
2024/01/03 03:03:36;;;;;;;6.50;1.60;;;9.10;99.90;;;;;;6298849;22;20055;-74
2024/01/03 03:06:02;;;;;;;6.80;2.00;;;9.10;99.90;;;;;;6273741;22;20102;-74
2024/01/03 03:08:28;;;;;;;7.43;2.05;;;9.10;99.90;;;;;;6273781;22;20107;-75
2024/01/03 03:10:54;;;;;;;8.35;1.90;;;9.10;99.90;;;;;;6274024;22;20729;-74
2024/01/03 03:13:20;;;;;;;6.00;2.47;;;9.20;99.90;;;;;;6273324;22;20133;-74
2024/01/03 03:15:46;;;;;;;5.28;1.90;;;9.20;99.90;;;;;;6273379;22;20057;-73
2024/01/03 03:18:13;;;;;;;7.00;1.88;;;9.20;99.90;;;;;;6298827;22;20004;-74
2024/01/03 03:20:40;;;;;;;9.68;2.42;;;9.20;99.90;;;;;;6298918;22;20052;-74
2024/01/03 03:23:07;;;;;;;7.90;2.50;;;9.20;99.90;;;;;;6298854;22;20149;-74
2024/01/03 03:25:33;;;;;;;13.88;3.53;;;9.20;99.90;;;;;;6273126;22;20034;-74
2024/01/03 03:28:07;;;;;;;16.77;2.70;;;9.20;99.90;;;;;;6299643;22;20571;-74
2024/01/03 03:30:35;;;;;;;27.40;3.25;;;9.20;99.90;;;;;;6273601;22;20407;-74
2024/01/03 03:33:00;;;;;;;12.32;3.25;;;9.20;99.90;;;;;;6298639;22;20396;-74
2024/01/03 03:35:26;;;;;;;18.05;3.58;;;9.20;99.90;;;;;;6298936;22;20088;-74
2024/01/03 03:37:52;;;;;;;18.58;2.58;;;9.20;99.90;;;;;;6298877;22;20337;-75
2024/01/03 03:40:17;;;;;;;23.33;4.35;;;9.30;99.90;;;;;;6298961;22;20096;-74
2024/01/03 03:42:46;;;;;;;16.98;2.80;;;9.20;99.90;;;;;;6299170;22;20042;-75
2024/01/03 03:45:12;;;;;;;15.02;2.75;;;9.30;99.90;;;;;;6273357;22;20386;-74
2024/01/03 03:47:38;;;;;;;15.00;2.80;;;9.30;99.90;;;;;;6300448;22;20016;-74
2024/01/03 03:50:04;;;;;;;19.17;3.30;;;9.30;99.90;;;;;;6301093;22;20029;-75
2024/01/03 03:52:30;;;;;;;17.58;2.78;;;9.40;99.90;;;;;;6302681;22;20098;-75
2024/01/03 03:54:55;;;;;;;15.90;3.33;;;9.40;99.90;;;;;;6300918;22;20414;-75
2024/01/03 03:57:21;;;;;;;16.25;2.63;;;9.40;99.90;;;;;;6275028;22;20335;-75
2024/01/03 03:59:46;;;;;;;19.85;2.47;;;9.40;99.90;;;;;;6302553;22;20011;-75
2024/01/03 04:02:12;;;;;;;14.02;2.67;;;9.50;99.90;;;;;;6301248;22;20440;-75
2024/01/03 04:04:38;;;;;;;19.05;3.25;;;9.50;99.90;;;;;;6302812;22;20069;-75
2024/01/03 04:07:04;;;;;;;18.13;3.35;;;9.50;99.90;;;;;;6301227;22;20027;-74
2024/01/03 04:09:30;;;;;;;12.65;3.78;;;9.60;99.90;;;;;;6300992;22;20757;-76
2024/01/03 04:11:55;;;;;;;23.33;3.47;;;9.50;99.90;;;;;;6301061;22;20058;-76
2024/01/03 04:14:21;;;;;;;16.40;2.58;;;9.50;99.90;;;;;;6300951;22;20047;-75
2024/01/03 04:16:47;;;;;;;13.40;3.00;;;9.50;99.90;;;;;;6301179;22;20018;-75
2024/01/03 04:19:12;;;;;;;17.60;3.97;;;9.50;99.90;;;;;;6275311;22;20126;-76
2024/01/03 04:21:38;;;;;;;22.15;2.85;;;9.50;99.90;;;;;;6300290;22;20355;-75
2024/01/03 04:24:04;;;;;;;16.60;2.78;;;9.50;99.90;;;;;;6274700;22;20054;-75
2024/01/03 04:26:30;;;;;;;16.77;3.10;;;9.40;99.90;;;;;;6300679;22;20018;-75
2024/01/03 04:28:56;;;;;;;19.70;3.40;;;9.50;99.90;;;;;;6300392;22;20022;-75
2024/01/03 04:31:21;;;;;;;19.05;3.08;;;9.50;99.90;;;;;;6300379;22;20007;-74
2024/01/03 04:33:47;;;;;;;20.10;3.58;;;9.50;99.90;;;;;;6300323;22;20133;-75
2024/01/03 04:36:13;;;;;;;22.50;2.90;;;9.50;99.90;;;;;;6300368;22;20015;-75
2024/01/03 04:38:39;;;;;;;20.90;3.08;;;9.50;99.90;;;;;;6300628;22;20080;-76
2024/01/03 04:41:04;;;;;;;17.27;3.13;;;9.50;99.90;;;;;;6300343;22;20069;-75
2024/01/03 04:43:30;;;;;;;25.05;3.92;;;9.50;99.90;;;;;;6302009;22;20471;-75
2024/01/03 04:45:56;;;;;;;18.63;2.92;;;9.50;99.90;;;;;;6300338;22;20076;-75
2024/01/03 04:48:21;;;;;;;9.52;2.67;;;9.50;99.90;;;;;;6274584;22;20296;-76
2024/01/03 04:50:47;;;;;;;15.80;2.92;;;9.50;99.90;;;;;;6300276;22;20151;-75
2024/01/03 04:53:13;;;;;;;16.85;2.80;;;9.50;99.90;;;;;;6300160;22;20012;-75
2024/01/03 04:55:38;;;;;;;17.40;3.65;;;9.50;99.90;;;;;;6300131;22;20116;-75
2024/01/03 04:58:04;;;;;;;22.92;3.55;;;9.50;99.90;;;;;;6299816;22;20470;-75
2024/01/03 05:00:30;;;;;;;15.65;2.70;;;9.50;99.90;;;;;;6302338;22;20019;-75
2024/01/03 05:02:56;;;;;;;14.88;3.45;;;9.60;99.90;;;;;;6300114;22;20007;-75
2024/01/03 05:05:22;;;;;;;22.83;4.25;;;9.60;99.90;;;;;;6274148;22;20501;-75
2024/01/03 05:07:48;;;;;;;18.92;3.92;;;9.60;99.90;;;;;;6300050;22;20011;-75
2024/01/03 05:10:13;;;;;;;22.92;4.47;;;9.60;99.90;;;;;;6300038;22;20024;-75
2024/01/03 05:12:39;;;;;;;16.73;3.17;;;9.70;99.90;;;;;;6299875;22;20015;-76
2024/01/03 05:15:06;;;;;;;17.33;3.45;;;9.70;99.90;;;;;;6300011;22;20124;-75
2024/01/03 05:17:32;;;;;;;20.05;3.22;;;9.70;99.90;;;;;;6300153;22;20015;-75
2024/01/03 05:19:58;;;;;;;16.80;3.38;;;9.70;99.90;;;;;;6300269;22;20015;-75
2024/01/03 05:22:23;;;;;;;20.55;3.10;;;9.70;99.90;;;;;;6300114;22;20027;-75
2024/01/03 05:24:49;;;;;;;21.05;3.42;;;9.70;99.90;;;;;;6300192;22;20053;-76
2024/01/03 05:27:15;;;;;;;18.08;2.83;;;9.80;99.90;;;;;;6301723;22;20011;-76
2024/01/03 05:29:41;;;;;;;15.10;3.28;;;9.70;99.90;;;;;;6300168;22;20019;-76
2024/01/03 05:32:07;;;;;;;16.60;3.00;;;9.70;99.90;;;;;;6300042;22;20026;-76
2024/01/03 05:34:33;;;;;;;19.40;4.13;;;9.70;99.90;;;;;;6300116;22;20042;-76
2024/01/03 05:36:59;;;;;;;17.23;3.47;;;9.80;99.90;;;;;;6300147;22;20015;-76
2024/01/03 05:39:24;;;;;;;24.33;3.35;;;9.80;99.90;;;;;;6300114;22;20072;-76
2024/01/03 05:41:50;;;;;;;20.77;4.43;;;9.80;99.90;;;;;;6300105;22;20423;-76
2024/01/03 05:44:16;;;;;;;19.58;3.30;;;9.80;99.90;;;;;;6300193;22;20080;-75
2024/01/03 05:46:42;;;;;;;13.10;2.88;;;9.80;99.90;;;;;;6300608;22;20019;-76
2024/01/03 05:49:08;;;;;;;20.02;3.33;;;9.80;99.90;;;;;;6274740;22;20080;-76
2024/01/03 05:51:34;;;;;;;21.38;3.15;;;9.80;99.90;;;;;;6274649;22;20105;-76
2024/01/03 05:54:00;;;;;;;18.50;3.75;;;9.80;99.90;;;;;;6300108;22;20022;-76
2024/01/03 05:56:27;;;;;;;19.20;3.05;;;9.80;99.90;;;;;;6299589;22;20431;-77
2024/01/03 05:58:53;;;;;;;19.98;3.53;;;9.80;99.90;;;;;;6299751;22;20015;-77
2024/01/03 06:01:18;;;;;;;18.77;3.10;;;9.80;99.90;;;;;;6299737;22;20029;-76
2024/01/03 06:03:44;;;;;;;15.65;4.63;;;9.80;99.90;;;;;;6299453;22;20074;-77
2024/01/03 06:06:10;;;;;;;15.30;2.90;;;9.70;99.90;;;;;;6299756;22;20023;-78
2024/01/03 06:08:36;;;;;;;26.10;3.47;;;9.70;99.90;;;;;;6299467;22;20030;-78
2024/01/03 06:11:02;;;;;;;15.88;3.03;;;9.70;99.90;;;;;;6299624;22;20434;-78
2024/01/03 06:13:28;;;;;;;19.02;3.35;;;9.70;99.90;;;;;;6273898;22;20026;-78
2024/01/03 06:15:54;;;;;;;14.07;3.55;;;9.70;99.90;;;;;;6273947;22;20019;-78
2024/01/03 06:18:21;;;;;;;13.07;3.53;;;9.70;99.90;;;;;;6299923;22;20023;-78
2024/01/03 06:20:47;;;;;;;15.98;2.75;;;9.70;99.90;;;;;;6299553;22;20011;-78
2024/01/03 06:23:12;;;;;;;13.27;2.50;;;9.80;99.90;;;;;;6273961;22;20019;-78
2024/01/03 06:25:38;;;;;;;17.95;3.10;;;9.80;99.90;;;;;;6299735;22;20037;-78
2024/01/03 06:28:05;;;;;;;20.38;2.67;;;9.80;99.90;;;;;;6299647;22;20083;-78
2024/01/03 06:30:30;;;;;;;17.67;3.35;;;9.80;99.90;;;;;;6299899;22;20049;-79
2024/01/03 06:32:56;;;;;;;22.13;3.78;;;9.80;99.90;;;;;;6299645;22;20092;-79
2024/01/03 06:35:22;;;;;;;13.02;3.10;;;9.80;99.90;;;;;;6299920;22;20019;-78
2024/01/03 06:37:47;;;;;;;19.17;3.83;;;9.80;99.90;;;;;;6300027;22;20008;-79
2024/01/03 06:40:14;;;;;;;16.80;3.60;;;9.90;99.90;;;;;;6299949;22;20187;-78
2024/01/03 06:42:40;;;;;;;13.75;2.83;;;9.80;99.90;;;;;;6300263;22;20516;-78
2024/01/03 06:45:06;;;;;;;12.35;3.40;;;9.90;99.90;;;;;;6300501;22;20019;-77
2024/01/03 06:47:32;;;;;;;18.48;3.20;;;9.90;99.90;;;;;;6300967;22;20026;-77
2024/01/03 06:49:58;;;;;;;15.07;2.72;;;9.80;99.90;;;;;;6300207;22;20089;-78
2024/01/03 06:52:24;;;;;;;13.18;2.97;;;9.90;99.90;;;;;;6299500;22;20031;-78
2024/01/03 06:54:50;;;;;;;22.20;4.00;;;9.90;99.90;;;;;;6299532;22;20046;-78
2024/01/03 06:57:16;;;;;;;15.40;3.83;;;9.90;99.90;;;;;;6273644;22;20043;-77
2024/01/03 06:59:41;;;;;;;16.90;3.25;;;9.90;99.90;;;;;;6299638;22;20011;-77
2024/01/03 07:02:08;;;;;;;18.10;3.10;;;9.90;99.90;;;;;;6299708;22;20018;-78
2024/01/03 07:04:33;;;;;;;12.52;2.75;;;9.90;99.90;;;;;;6273655;22;20023;-79
2024/01/03 07:06:59;;;;;;;16.20;2.47;;;9.90;99.90;;;;;;6273904;22;20090;-79
2024/01/03 07:09:25;;;;;;;15.98;3.88;;;9.90;99.90;;;;;;6273466;22;20458;-79
2024/01/03 07:11:50;;;;;;;13.73;3.55;;;9.90;99.90;;;;;;6299767;22;20011;-78
2024/01/03 07:14:16;;;;;;;26.20;3.75;;;9.80;99.90;;;;;;6299388;22;20426;-79
2024/01/03 07:16:42;;;;;;;14.88;3.58;;;9.80;99.90;;;;;;6299350;22;20090;-78
2024/01/03 07:19:07;;;;;;;24.88;3.58;;;9.90;99.90;;;;;;6299320;22;20431;-77
2024/01/03 07:21:33;;;;;;;13.35;4.07;;;9.80;99.90;;;;;;6274216;22;20031;-76
2024/01/03 07:23:59;;;;;;;23.35;3.10;;;9.80;99.90;;;;;;6301240;22;20019;-76
2024/01/03 07:26:25;;;;;;;24.38;4.93;;;9.80;99.90;;;;;;6301458;22;20077;-76
2024/01/03 07:28:51;;;;;;;25.60;5.30;;;9.80;99.90;;;;;;6301888;22;20073;-76
2024/01/03 07:31:17;;;;;;;17.17;4.13;;;9.80;99.90;;;;;;6302036;22;20061;-76
2024/01/03 07:33:42;;;;;;;18.20;3.65;;;9.80;99.90;;;;;;6281792;22;20015;-77
2024/01/03 07:36:08;;;;;;;17.40;3.97;;;9.80;99.90;;;;;;6307152;22;20019;-77
2024/01/03 07:38:34;;;;;;;26.75;4.43;;;9.80;99.90;;;;;;6307412;22;20023;-77
2024/01/03 07:41:00;;;;;;;25.95;4.07;;;9.80;99.90;;;;;;6306025;22;20016;-76
2024/01/03 07:43:29;;;;;;;20.00;2.78;;;9.80;99.90;;;;;;6301844;22;20300;-76
2024/01/03 07:45:58;;;;;;;18.77;3.65;;;9.80;99.90;;;;;;6303372;22;20051;-77
2024/01/03 07:48:24;;;;;;;21.30;3.08;;;9.80;99.90;;;;;;6303060;22;20023;-77
2024/01/03 07:50:50;;;;;;;16.00;3.80;;;9.80;99.90;;;;;;6301382;22;20320;-77
2024/01/03 07:53:16;;;;;;;18.55;4.10;;;9.80;99.90;;;;;;6300871;22;20352;-77
2024/01/03 07:55:41;;;;;;;18.00;4.43;;;9.80;99.90;;;;;;6301355;22;20015;-77
2024/01/03 07:58:08;;;;;;;17.25;3.30;;;9.80;99.90;;;;;;6301462;22;20026;-77
2024/01/03 08:00:34;;;;;;;15.80;3.50;;;9.90;99.90;;;;;;6275534;22;20076;-77
2024/01/03 08:02:59;;;;;;;22.80;3.63;;;9.80;99.90;;;;;;6300706;22;20019;-77
2024/01/03 08:05:25;;;;;;;20.98;3.58;;;9.80;99.90;;;;;;6302549;22;20021;-76
2024/01/03 08:07:51;;;;;;;23.95;4.72;;;9.80;99.90;;;;;;6300570;22;20118;-76
2024/01/03 08:10:17;;;;;;;20.55;3.70;;;9.80;99.90;;;;;;6303025;22;20016;-77
2024/01/03 08:12:42;;;;;;;19.17;4.03;;;9.80;99.90;;;;;;6302549;22;20055;-78
2024/01/03 08:15:08;;;;;;;19.50;3.28;;;9.80;99.90;;;;;;6300810;22;20019;-77
2024/01/03 08:17:34;;;;;;;28.60;3.60;;;9.80;99.90;;;;;;6300729;22;20116;-78
2024/01/03 08:20:00;;;;;;;19.42;3.65;;;9.80;99.90;;;;;;6274938;22;20023;-78
2024/01/03 08:22:26;;;;;;;24.50;3.88;;;9.80;99.90;;;;;;6299991;22;20478;-78
2024/01/03 08:24:52;;;;;;;20.25;3.67;;;9.80;99.90;;;;;;6300514;22;20026;-78
2024/01/03 08:27:18;;;;;;;13.98;3.17;;;9.80;99.90;;;;;;6274360;22;20023;-78
2024/01/03 08:29:44;;;;;;;21.17;4.00;;;9.80;99.90;;;;;;6300455;22;20030;-78
2024/01/03 08:32:10;;;;;;;15.77;2.97;;;9.80;99.90;;;;;;6300123;22;20019;-74
2024/01/03 08:34:36;;;;;;;18.08;2.58;;;9.90;99.90;;;;;;6300352;22;20046;-75
2024/01/03 08:37:01;;;;;;;24.95;3.63;;;9.90;99.90;;;;;;6274062;22;20014;-75
2024/01/03 08:39:27;;;;;;;24.15;3.67;;;9.80;99.90;;;;;;6300015;22;20391;-74
2024/01/03 08:41:53;;;;;;;18.52;2.97;;;9.80;99.90;;;;;;6300668;22;20066;-75
2024/01/03 08:44:22;;;;;;;20.27;3.65;;;9.90;99.90;;;;;;6301158;22;20027;-75
2024/01/03 08:46:48;;;;;;;17.73;3.85;;;9.80;99.90;;;;;;6301086;22;20693;-75
2024/01/03 08:49:14;;;;;;;13.32;4.15;;;9.90;99.90;;;;;;6301093;22;20047;-75
2024/01/03 08:51:45;;;;;;;23.55;3.90;;;9.80;99.90;;;;;;6302734;22;20016;-75
2024/01/03 08:54:11;;;;;;;19.90;3.45;;;9.90;99.90;;;;;;6301374;22;20094;-75
2024/01/03 08:56:39;;;;;;;19.23;3.33;;;9.80;99.90;;;;;;6301289;22;20043;-75
2024/01/03 08:59:05;;;;;;;22.55;4.00;;;9.80;99.90;;;;;;6301304;22;20015;-74
2024/01/03 09:01:34;;;;;;;23.02;4.65;;;9.80;99.90;;;;;;6301738;22;20023;-73
2024/01/03 09:04:00;;;;;;;16.83;4.03;;;9.80;99.90;;;;;;6302971;22;20019;-75
2024/01/03 09:06:26;;;;;;;23.23;4.03;;;9.80;99.90;;;;;;6300793;22;20339;-74
2024/01/03 09:08:54;;;;;;;18.45;3.40;;;9.80;99.90;;;;;;6301054;22;20022;-75
2024/01/03 09:11:24;;;;;;;27.70;4.45;;;9.80;99.90;;;;;;6300948;22;20018;-74
2024/01/03 09:13:50;;;;;;;27.35;3.95;;;9.70;99.90;;;;;;6301093;22;20051;-74
2024/01/03 09:16:22;;;;;;;19.30;4.78;;;9.70;99.90;;;;;;6274925;22;20038;-73
2024/01/03 09:18:48;;;;;;;20.40;4.65;;;9.70;99.90;;;;;;6300751;22;20015;-74
2024/01/03 09:21:14;;;;;;;24.10;5.15;;;9.70;99.90;;;;;;6274964;22;20046;-74
2024/01/03 09:23:40;;;;;;;29.83;5.30;;;9.70;99.90;;;;;;6275418;22;20106;-73
2024/01/03 09:26:07;;;;;;;22.75;3.72;;;9.80;99.90;;;;;;6301042;22;20016;-74
2024/01/03 09:28:35;;;;;;;16.85;3.65;;;9.80;99.90;;;;;;6300870;22;20019;-74
2024/01/03 09:31:05;;;;;;;15.48;3.03;;;9.80;99.90;;;;;;6300657;22;20043;-74
2024/01/03 09:33:30;;;;;;;18.33;4.10;;;9.90;99.90;;;;;;6274445;22;20007;-79
2024/01/03 09:35:56;;;;;;;24.67;3.30;;;9.90;99.90;;;;;;6300569;22;20081;-79
2024/01/03 09:38:22;;;;;;;18.90;3.88;;;9.90;99.90;;;;;;6300718;22;20030;-76
2024/01/03 09:40:48;;;;;;;19.38;3.58;;;9.90;99.90;;;;;;6300561;22;20015;-78
2024/01/03 09:43:15;;;;;;;18.33;2.88;;;10.00;99.90;;;;;;6298877;22;20042;-78
2024/01/03 09:45:41;;;;;;;15.98;2.78;;;9.90;99.90;;;;;;6300487;22;20044;-78
2024/01/03 09:48:09;;;;;;;18.92;3.13;;;9.90;99.90;;;;;;6300190;22;20094;-78
2024/01/03 09:50:35;;;;;;;14.93;3.08;;;9.90;99.90;;;;;;6300562;22;20015;-78
2024/01/03 09:53:03;;;;;;;15.88;2.45;;;9.90;99.90;;;;;;6300553;22;20119;-78
2024/01/03 09:55:29;;;;;;;8.63;2.30;;;9.90;99.90;;;;;;6300690;22;20015;-78
2024/01/03 09:57:55;;;;;;;10.60;2.28;;;9.90;99.90;;;;;;6274865;22;20015;-78
2024/01/03 10:00:23;;;;;;;9.70;2.30;;;9.90;99.90;;;;;;6275236;22;20047;-78
2024/01/03 10:02:50;;;;;;;14.68;2.83;;;9.80;99.90;;;;;;6300515;22;20007;-78
2024/01/03 10:05:20;;;;;;;15.38;3.15;;;9.80;99.90;;;;;;6300346;22;20022;-78
2024/01/03 10:07:45;;;;;;;15.23;2.83;;;9.80;99.90;;;;;;6301025;22;20011;-76
2024/01/03 10:10:11;;;;;;;15.40;3.33;;;9.90;99.90;;;;;;6300641;22;20092;-76
2024/01/03 10:12:37;;;;;;;20.15;2.75;;;9.90;99.90;;;;;;6302228;22;20111;-76
2024/01/03 10:15:16;;;;;;;22.23;4.40;;;9.80;99.90;;;;;;6300253;22;20015;-76
2024/01/03 10:17:46;;;;;;;16.10;2.70;;;9.90;99.90;;;;;;6274187;22;20011;-77
2024/01/03 10:20:28;;;;;;;13.07;3.03;;;9.90;99.90;;;;;;6300163;22;20486;-76
2024/01/03 10:23:21;;;;;;;12.98;2.83;;;9.80;99.90;;;;;;6299902;22;20019;-76
2024/01/03 10:25:47;;;;;;;14.73;2.63;;;9.90;99.90;;;;;;6287154;22;20440;-76
2024/01/03 10:28:17;;;;;;;15.80;4.05;;;9.80;99.90;;;;;;6300082;22;20016;-78
2024/01/03 10:30:50;;;;;;;14.10;3.33;;;9.80;99.90;;;;;;6300428;22;20019;-76
2024/01/03 10:33:17;;;;;;;13.57;3.10;;;9.90;99.90;;;;;;6301403;22;20046;-76
2024/01/03 10:35:44;;;;;;;17.17;3.78;;;9.90;99.90;;;;;;6299902;22;20321;-75
2024/01/03 10:38:10;;;;;;;21.77;3.08;;;9.90;99.90;;;;;;6299767;22;20359;-77
2024/01/03 10:40:37;;;;;;;15.57;3.72;;;9.90;99.90;;;;;;6299905;22;20080;-77
2024/01/03 10:43:04;;;;;;;15.82;3.42;;;9.90;99.90;;;;;;6299706;22;20149;-76
2024/01/03 10:45:30;;;;;;;14.50;3.05;;;9.90;99.90;;;;;;6299695;22;20045;-76
2024/01/03 10:47:57;;;;;;;18.70;4.22;;;9.90;99.90;;;;;;6299642;22;20159;-77
2024/01/03 10:50:23;;;;;;;14.48;3.30;;;9.90;99.90;;;;;;6301488;22;20364;-76
2024/01/03 10:52:55;;;;;;;11.13;2.95;;;9.90;99.90;;;;;;6301819;22;20012;-77
2024/01/03 10:55:25;;;;;;;25.70;3.88;;;9.90;99.90;;;;;;6300710;22;20021;-77
2024/01/03 10:57:56;;;;;;;27.58;4.85;;;10.00;99.90;;;;;;6302820;22;20092;-76
2024/01/03 11:00:40;;;;;;;18.27;3.25;;;10.00;99.90;;;;;;6304183;22;20022;-77
2024/01/03 11:03:27;;;;;;;17.50;3.42;;;10.00;99.90;;;;;;6303858;22;20774;-77
2024/01/03 11:06:19;;;;;;;17.52;3.45;;;10.00;99.90;;;;;;6303913;22;20031;-79
2024/01/03 11:08:54;;;;;;;24.85;3.92;;;10.00;99.90;;;;;;6272942;22;20392;-80
2024/01/03 11:11:33;;;;;;;22.30;3.88;;;10.00;99.90;;;;;;6275670;22;20069;-80
2024/01/03 11:14:00;;;;;;;26.20;3.95;;;10.00;99.90;;;;;;6301092;22;20355;-84
2024/01/03 11:16:39;;;;;;;23.55;4.50;;;10.00;99.90;;;;;;6275475;22;20008;-81
2024/01/03 11:19:07;;;;;;;22.02;4.05;;;10.00;99.90;;;;;;6275105;22;20039;-83
2024/01/03 11:21:45;;;;;;;24.33;3.72;;;10.00;99.90;;;;;;6304421;22;20019;-81
2024/01/03 11:24:20;;;;;;;33.45;7.60;;;10.00;99.90;;;;;;6278640;22;20118;-84
2024/01/03 11:26:58;;;;;;;18.77;4.28;;;9.90;99.90;;;;;;6302308;22;20026;-82
2024/01/03 11:29:36;;;;;;;18.52;3.75;;;9.90;99.90;;;;;;6300792;22;20083;-78
2024/01/03 11:32:04;;;;;;;11.02;3.08;;;9.80;99.90;;;;;;6301500;22;20090;-76
2024/01/03 11:34:42;;;;;;;7.28;2.75;;;9.80;99.90;;;;;;6301783;22;20019;-78
2024/01/03 11:37:14;;;;;;;8.55;1.85;;;9.80;99.90;;;;;;6301133;22;20015;-74
2024/01/03 11:39:45;;;;;;;8.83;2.30;;;9.80;99.90;;;;;;6276443;22;20022;-75
2024/01/03 11:42:28;;;;;;;8.68;1.98;;;9.80;99.90;;;;;;6301460;22;20734;-78
2024/01/03 11:45:17;;;;;;;14.98;2.63;;;9.80;99.90;;;;;;6301292;22;20110;-78
2024/01/03 11:47:47;;;;;;;9.40;2.10;;;9.70;99.90;;;;;;6275379;22;20081;-77
2024/01/03 11:50:14;;;;;;;9.40;2.13;;;9.80;99.90;;;;;;6301312;22;20034;-76
2024/01/03 11:52:46;;;;;;;8.52;2.28;;;9.70;99.90;;;;;;6275592;22;20094;-76
2024/01/03 11:55:16;;;;;;;19.85;2.45;;;9.70;99.90;;;;;;6302095;22;20011;-77
2024/01/03 11:57:49;;;;;;;10.90;2.67;;;9.80;99.90;;;;;;6301864;22;20419;-77
2024/01/03 12:00:20;;;;;;;15.68;2.63;;;9.80;99.90;;;;;;6301707;22;20050;-76
2024/01/03 12:03:04;;;;;;;8.73;2.40;;;9.70;99.90;;;;;;6302044;22;20439;-77
2024/01/03 12:05:30;;;;;;;17.10;2.45;;;9.70;99.90;;;;;;6275964;22;20084;-76
2024/01/03 12:07:57;;;;;;;7.20;2.13;;;9.70;99.90;;;;;;6302930;22;20016;-75
2024/01/03 12:10:24;;;;;;;12.82;2.30;;;9.70;99.90;;;;;;6301495;22;20019;-75
2024/01/03 12:12:53;;;;;;;9.68;3.03;;;9.70;99.90;;;;;;6303157;22;20349;-75
2024/01/03 12:15:21;;;;;;;8.40;2.55;;;9.70;99.90;;;;;;6275821;22;20409;-77
2024/01/03 12:17:48;;;;;;;10.02;2.58;;;9.70;99.90;;;;;;6302760;22;20019;-77
2024/01/03 12:20:16;;;;;;;11.05;2.70;;;9.80;99.90;;;;;;6250710;22;20023;-77
2024/01/03 12:22:42;;;;;;;13.68;2.45;;;9.70;99.90;;;;;;6275159;22;20011;-77
2024/01/03 12:25:20;;;;;;;5.90;1.98;;;9.80;99.90;;;;;;6224616;22;20015;-77
2024/01/03 12:27:55;;;;;;;7.80;2.17;;;9.80;99.90;;;;;;6251253;22;20022;-73
2024/01/03 12:30:21;;;;;;;12.15;2.33;;;9.80;99.90;;;;;;6273520;22;20344;-76
2024/01/03 12:32:47;;;;;;;12.38;2.40;;;9.70;99.90;;;;;;6300946;22;20011;-77
2024/01/03 12:35:14;;;;;;;6.32;2.25;;;9.70;99.90;;;;;;6301014;22;20089;-77
2024/01/03 12:37:42;;;;;;;12.38;2.17;;;9.70;99.90;;;;;;6301103;22;20022;-79
2024/01/03 12:40:11;;;;;;;10.02;2.10;;;9.70;99.90;;;;;;6300744;22;20008;-77
2024/01/03 12:42:37;;;;;;;10.10;2.25;;;9.70;99.90;;;;;;6300718;22;20289;-78
2024/01/03 12:45:03;;;;;;;7.72;1.85;;;9.70;99.90;;;;;;6300656;22;20078;-78
2024/01/03 12:47:29;;;;;;;10.23;2.30;;;9.70;99.90;;;;;;6274867;22;20015;-77
2024/01/03 12:49:55;;;;;;;7.60;2.30;;;9.70;99.90;;;;;;6300982;22;20451;-78
2024/01/03 12:52:29;;;;;;;8.80;2.35;;;9.70;99.90;;;;;;6301087;22;20029;-78